createdAt,value
2017-08-11T00:00:19.888Z,953.27
2017-08-11T00:01:19.882Z,953.24
2017-08-11T00:02:19.883Z,953.24
2017-08-11T00:03:19.873Z,953.28
2017-08-11T00:04:19.867Z,953.27
2017-08-11T00:05:19.863Z,953.25
2017-08-11T00:06:19.857Z,953.29
2017-08-11T00:07:19.853Z,953.27
2017-08-11T00:08:19.848Z,953.28
2017-08-11T00:09:19.844Z,953.28
2017-08-11T00:10:19.838Z,953.24
2017-08-11T00:11:19.832Z,953.24
2017-08-11T00:12:19.829Z,953.19
2017-08-11T00:13:19.824Z,953.18
2017-08-11T00:14:19.819Z,953.17
2017-08-11T00:15:19.814Z,953.1
2017-08-11T00:16:19.809Z,953.1
2017-08-11T00:17:19.805Z,953.1
2017-08-11T00:18:19.826Z,953.04
2017-08-11T00:19:19.801Z,953.05
2017-08-11T00:20:19.788Z,953.02
2017-08-11T00:21:19.804Z,953.08
2017-08-11T00:22:19.778Z,953.1
2017-08-11T00:23:19.786Z,953.13
2017-08-11T00:24:19.769Z,953.12
2017-08-11T00:25:19.765Z,953.13
2017-08-11T00:26:19.761Z,953.15
2017-08-11T00:27:19.754Z,953.17
2017-08-11T00:28:19.749Z,953.17
2017-08-11T00:29:19.744Z,953.15
2017-08-11T00:30:19.760Z,953.16
2017-08-11T00:31:19.734Z,953.16
2017-08-11T00:32:19.729Z,953.15
2017-08-11T00:33:19.725Z,953.13
2017-08-11T00:34:19.720Z,953.11
2017-08-11T00:35:19.714Z,953.07
2017-08-11T00:36:19.710Z,953.02
2017-08-11T00:37:19.704Z,952.99
2017-08-11T00:38:19.701Z,952.99
2017-08-11T00:39:19.694Z,952.97
2017-08-11T00:40:19.690Z,952.96
2017-08-11T00:41:19.687Z,952.98
2017-08-11T00:42:19.678Z,952.94
2017-08-11T00:43:19.673Z,952.94
2017-08-11T00:44:19.668Z,952.86
2017-08-11T00:45:19.684Z,952.81
2017-08-11T00:46:19.659Z,952.8
2017-08-11T00:47:19.654Z,952.78
2017-08-11T00:48:19.648Z,952.71
2017-08-11T00:49:19.643Z,952.76
2017-08-11T00:50:19.639Z,952.7
2017-08-11T00:51:19.634Z,952.67
2017-08-11T00:52:19.628Z,952.69
2017-08-11T00:53:19.623Z,952.67
2017-08-11T00:54:19.619Z,952.61
2017-08-11T00:55:19.612Z,952.57
2017-08-11T00:56:19.610Z,952.49
2017-08-11T00:57:19.603Z,952.52
2017-08-11T00:58:19.598Z,952.47
2017-08-11T00:59:19.594Z,952.47
2017-08-11T01:00:19.588Z,952.47
2017-08-11T01:01:19.583Z,952.43
2017-08-11T01:02:19.576Z,952.44
2017-08-11T01:03:19.592Z,952.35
2017-08-11T01:04:19.568Z,952.44
2017-08-11T01:05:19.563Z,952.4
2017-08-11T01:06:19.559Z,952.43
2017-08-11T01:07:19.552Z,952.39
2017-08-11T01:08:19.546Z,952.44
2017-08-11T01:09:19.541Z,952.49
2017-08-11T01:10:19.535Z,952.54
2017-08-11T01:11:19.530Z,952.59
2017-08-11T01:12:19.525Z,952.6
2017-08-11T01:13:19.521Z,952.66
2017-08-11T01:14:19.517Z,952.71
2017-08-11T01:15:19.508Z,952.72
2017-08-11T01:16:19.504Z,952.66
2017-08-11T01:17:19.497Z,952.61
2017-08-11T01:18:19.492Z,952.65
2017-08-11T01:19:19.488Z,952.61
2017-08-11T01:20:19.481Z,952.65
2017-08-11T01:21:19.476Z,952.67
2017-08-11T01:22:19.472Z,952.64
2017-08-11T01:23:19.465Z,952.63
2017-08-11T01:24:19.465Z,952.69
2017-08-11T01:25:19.454Z,952.64
2017-08-11T01:26:19.449Z,952.63
2017-08-11T01:27:19.444Z,952.6
2017-08-11T01:28:19.438Z,952.61
2017-08-11T01:29:19.432Z,952.61
2017-08-11T01:30:19.446Z,952.58
2017-08-11T01:31:19.423Z,952.61
2017-08-11T01:32:19.417Z,952.63
2017-08-11T01:33:19.412Z,952.65
2017-08-11T01:34:19.406Z,952.65
2017-08-11T01:35:19.401Z,952.72
2017-08-11T01:36:19.396Z,952.74
2017-08-11T01:37:19.391Z,952.71
2017-08-11T01:38:19.408Z,952.65
2017-08-11T01:39:19.379Z,952.64
2017-08-11T01:40:19.373Z,952.65
2017-08-11T01:41:19.369Z,952.65
2017-08-11T01:42:19.364Z,952.71
2017-08-11T01:43:19.357Z,952.71
2017-08-11T01:44:19.352Z,952.7
2017-08-11T01:45:19.346Z,952.7
2017-08-11T01:46:19.341Z,952.68
2017-08-11T01:47:19.354Z,952.7
2017-08-11T01:48:19.343Z,952.67
2017-08-11T01:49:19.326Z,952.7
2017-08-11T01:50:19.339Z,952.7
2017-08-11T01:51:19.316Z,952.67
2017-08-11T01:52:19.325Z,952.66
2017-08-11T01:53:19.305Z,952.74
2017-08-11T01:54:19.299Z,952.69
2017-08-11T01:55:19.294Z,952.69
2017-08-11T01:56:19.289Z,952.73
2017-08-11T01:57:19.283Z,952.71
2017-08-11T01:58:19.278Z,952.79
2017-08-11T01:59:19.273Z,952.81
2017-08-11T02:00:19.268Z,952.84
2017-08-11T02:01:19.262Z,952.87
2017-08-11T02:02:19.255Z,952.87
2017-08-11T02:03:19.251Z,952.9
2017-08-11T02:04:19.246Z,952.89
2017-08-11T02:05:19.243Z,952.9
2017-08-11T02:06:19.237Z,952.96
2017-08-11T02:07:19.230Z,952.92
2017-08-11T02:08:19.225Z,952.93
2017-08-11T02:09:19.220Z,952.91
2017-08-11T02:10:19.215Z,952.88
2017-08-11T02:11:19.209Z,952.83
2017-08-11T02:12:19.203Z,952.81
2017-08-11T02:13:19.198Z,952.78
2017-08-11T02:14:19.192Z,952.64
2017-08-11T02:15:19.188Z,952.62
2017-08-11T02:16:19.387Z,952.59
2017-08-11T02:17:19.177Z,952.63
2017-08-11T02:18:19.171Z,952.65
2017-08-11T02:19:19.164Z,952.69
2017-08-11T02:20:19.162Z,952.67
2017-08-11T02:21:19.157Z,952.64
2017-08-11T02:22:19.152Z,952.72
2017-08-11T02:23:19.144Z,952.74
2017-08-11T02:24:19.140Z,952.77
2017-08-11T02:25:19.134Z,952.79
2017-08-11T02:26:19.129Z,952.79
2017-08-11T02:27:19.122Z,952.77
2017-08-11T02:28:19.118Z,952.77
2017-08-11T02:29:19.114Z,952.8
2017-08-11T02:30:19.109Z,952.8
2017-08-11T02:31:19.102Z,952.76
2017-08-11T02:32:19.097Z,952.8
2017-08-11T02:33:19.091Z,952.73
2017-08-11T02:34:19.085Z,952.76
2017-08-11T02:35:19.081Z,952.78
2017-08-11T02:36:19.077Z,952.8
2017-08-11T02:37:19.070Z,952.75
2017-08-11T02:38:19.065Z,952.74
2017-08-11T02:39:19.059Z,952.65
2017-08-11T02:40:19.053Z,952.61
2017-08-11T02:41:19.048Z,952.56
2017-08-11T02:42:19.056Z,952.54
2017-08-11T02:43:19.038Z,952.54
2017-08-11T02:44:19.032Z,952.6
2017-08-11T02:45:19.046Z,952.55
2017-08-11T02:46:19.022Z,952.6
2017-08-11T02:47:19.017Z,952.57
2017-08-11T02:48:19.011Z,952.62
2017-08-11T02:49:19.005Z,952.62
2017-08-11T02:50:19.000Z,952.64
2017-08-11T02:51:19.015Z,952.61
2017-08-11T02:52:18.988Z,952.62
2017-08-11T02:53:18.985Z,952.59
2017-08-11T02:54:18.978Z,952.59
2017-08-11T02:55:18.973Z,952.61
2017-08-11T02:56:18.968Z,952.64
2017-08-11T02:57:18.964Z,952.62
2017-08-11T02:58:18.957Z,952.69
2017-08-11T02:59:18.952Z,952.61
2017-08-11T03:00:18.946Z,952.59
2017-08-11T03:01:18.942Z,952.64
2017-08-11T03:02:18.936Z,952.66
2017-08-11T03:03:18.928Z,952.64
2017-08-11T03:04:18.924Z,952.64
2017-08-11T03:05:18.919Z,952.69
2017-08-11T03:06:18.913Z,952.67
2017-08-11T03:07:18.907Z,952.65
2017-08-11T03:08:18.923Z,952.65
2017-08-11T03:09:18.898Z,952.71
2017-08-11T03:10:18.893Z,952.74
2017-08-11T03:11:18.885Z,952.78
2017-08-11T03:12:18.888Z,952.78
2017-08-11T03:13:18.875Z,952.77
2017-08-11T03:14:18.869Z,952.79
2017-08-11T03:15:18.864Z,952.75
2017-08-11T03:16:18.859Z,952.73
2017-08-11T03:17:18.853Z,952.71
2017-08-11T03:18:18.848Z,952.72
2017-08-11T03:19:18.841Z,952.67
2017-08-11T03:20:18.836Z,952.63
2017-08-11T03:21:18.840Z,952.66
2017-08-11T03:22:18.826Z,952.61
2017-08-11T03:23:18.822Z,952.62
2017-08-11T03:24:18.818Z,952.6
2017-08-11T03:25:18.810Z,952.63
2017-08-11T03:26:18.811Z,952.64
2017-08-11T03:27:18.800Z,952.63
2017-08-11T03:28:18.794Z,952.63
2017-08-11T03:29:18.790Z,952.6
2017-08-11T03:30:18.783Z,952.52
2017-08-11T03:31:18.781Z,952.5
2017-08-11T03:32:18.774Z,952.43
2017-08-11T03:33:18.767Z,952.45
2017-08-11T03:34:18.761Z,952.41
2017-08-11T03:35:18.759Z,952.29
2017-08-11T03:36:18.750Z,952.26
2017-08-11T03:37:18.746Z,952.29
2017-08-11T03:38:18.749Z,952.21
2017-08-11T03:39:18.736Z,952.19
2017-08-11T03:40:18.730Z,952.18
2017-08-11T03:41:18.723Z,952.21
2017-08-11T03:42:18.719Z,952.2
2017-08-11T03:43:18.714Z,952.24
2017-08-11T03:44:18.708Z,952.23
2017-08-11T03:45:18.722Z,952.26
2017-08-11T03:46:18.701Z,952.29
2017-08-11T03:47:18.690Z,952.3
2017-08-11T03:48:18.687Z,952.26
2017-08-11T03:49:18.679Z,952.24
2017-08-11T03:50:18.675Z,952.25
2017-08-11T03:51:18.670Z,952.24
2017-08-11T03:52:18.664Z,952.25
2017-08-11T03:53:18.660Z,952.22
2017-08-11T03:54:18.653Z,952.19
2017-08-11T03:55:18.649Z,952.17
2017-08-11T03:56:18.642Z,952.2
2017-08-11T03:57:18.638Z,952.23
2017-08-11T03:58:18.631Z,952.22
2017-08-11T03:59:18.627Z,952.2
2017-08-11T04:00:18.621Z,952.21
2017-08-11T04:01:18.615Z,952.23
2017-08-11T04:02:18.610Z,952.23
2017-08-11T04:03:18.604Z,952.21
2017-08-11T04:04:18.600Z,952.3
2017-08-11T04:05:18.593Z,952.36
2017-08-11T04:06:18.588Z,952.37
2017-08-11T04:07:18.583Z,952.43
2017-08-11T04:08:18.578Z,952.48
2017-08-11T04:09:18.574Z,952.5
2017-08-11T04:10:18.567Z,952.55
2017-08-11T04:11:18.562Z,952.56
2017-08-11T04:12:18.601Z,952.57
2017-08-11T04:13:18.550Z,952.61
2017-08-11T04:14:18.545Z,952.61
2017-08-11T04:15:18.544Z,952.65
2017-08-11T04:16:18.534Z,952.64
2017-08-11T04:17:18.528Z,952.61
2017-08-11T04:18:18.524Z,952.6
2017-08-11T04:19:18.518Z,952.53
2017-08-11T04:20:18.512Z,952.52
2017-08-11T04:21:18.506Z,952.45
2017-08-11T04:22:18.501Z,952.45
2017-08-11T04:23:18.499Z,952.44
2017-08-11T04:24:18.492Z,952.44
2017-08-11T04:25:18.486Z,952.41
2017-08-11T04:26:18.481Z,952.41
2017-08-11T04:27:18.476Z,952.41
2017-08-11T04:28:18.470Z,952.4
2017-08-11T04:29:18.465Z,952.39
2017-08-11T04:30:18.461Z,952.34
2017-08-11T04:31:18.455Z,952.35
2017-08-11T04:32:18.448Z,952.37
2017-08-11T04:33:18.443Z,952.38
2017-08-11T04:34:18.438Z,952.38
2017-08-11T04:35:18.433Z,952.38
2017-08-11T04:36:18.429Z,952.39
2017-08-11T04:37:18.423Z,952.42
2017-08-11T04:38:18.417Z,952.39
2017-08-11T04:39:18.413Z,952.41
2017-08-11T04:40:18.407Z,952.4
2017-08-11T04:41:18.401Z,952.41
2017-08-11T04:42:18.409Z,952.44
2017-08-11T04:43:18.390Z,952.45
2017-08-11T04:44:18.386Z,952.42
2017-08-11T04:45:18.380Z,952.38
2017-08-11T04:46:18.374Z,952.35
2017-08-11T04:47:18.369Z,952.27
2017-08-11T04:48:18.365Z,952.27
2017-08-11T04:49:18.358Z,952.28
2017-08-11T04:50:18.354Z,952.22
2017-08-11T04:51:18.350Z,952.26
2017-08-11T04:52:18.344Z,952.29
2017-08-11T04:53:18.340Z,952.29
2017-08-11T04:54:18.332Z,952.36
2017-08-11T04:55:18.328Z,952.35
2017-08-11T04:56:18.322Z,952.4
2017-08-11T04:57:18.317Z,952.35
2017-08-11T04:58:18.313Z,952.28
2017-08-11T04:59:18.307Z,952.28
2017-08-11T05:00:18.302Z,952.35
2017-08-11T05:01:18.299Z,952.36
2017-08-11T05:02:18.291Z,952.37
2017-08-11T05:03:18.287Z,952.4
2017-08-11T05:04:18.281Z,952.39
2017-08-11T05:05:18.276Z,952.38
2017-08-11T05:06:18.272Z,952.36
2017-08-11T05:07:18.266Z,952.39
2017-08-11T05:08:18.270Z,952.39
2017-08-11T05:09:18.256Z,952.44
2017-08-11T05:10:18.251Z,952.45
2017-08-11T05:11:18.245Z,952.52
2017-08-11T05:12:18.239Z,952.53
2017-08-11T05:13:18.235Z,952.55
2017-08-11T05:14:18.230Z,952.58
2017-08-11T05:15:18.225Z,952.6
2017-08-11T05:16:18.220Z,952.64
2017-08-11T05:17:18.222Z,952.7
2017-08-11T05:18:18.209Z,952.75
2017-08-11T05:19:18.203Z,952.75
2017-08-11T05:20:18.200Z,952.78
2017-08-11T05:21:18.195Z,952.74
2017-08-11T05:22:18.190Z,952.73
2017-08-11T05:23:18.183Z,952.69
2017-08-11T05:24:18.178Z,952.71
2017-08-11T05:25:18.173Z,952.74
2017-08-11T05:26:18.167Z,952.7
2017-08-11T05:27:18.162Z,952.73
2017-08-11T05:28:18.158Z,952.68
2017-08-11T05:29:18.152Z,952.7
2017-08-11T05:30:18.148Z,952.73
2017-08-11T05:31:18.143Z,952.72
2017-08-11T05:32:18.137Z,952.68
2017-08-11T05:33:18.131Z,952.75
2017-08-11T05:34:18.128Z,952.7
2017-08-11T05:35:18.122Z,952.7
2017-08-11T05:36:18.119Z,952.71
2017-08-11T05:37:18.111Z,952.7
2017-08-11T05:38:18.113Z,952.66
2017-08-11T05:39:18.102Z,952.64
2017-08-11T05:40:18.096Z,952.63
2017-08-11T05:41:18.093Z,952.57
2017-08-11T05:42:18.100Z,952.54
2017-08-11T05:43:18.081Z,952.53
2017-08-11T05:44:18.076Z,952.56
2017-08-11T05:45:18.074Z,952.62
2017-08-11T05:46:18.066Z,952.71
2017-08-11T05:47:18.064Z,952.72
2017-08-11T05:48:18.056Z,952.77
2017-08-11T05:49:18.051Z,952.76
2017-08-11T05:50:18.047Z,952.74
2017-08-11T05:51:18.040Z,952.76
2017-08-11T05:52:18.034Z,952.74
2017-08-11T05:53:18.031Z,952.76
2017-08-11T05:54:18.031Z,952.73
2017-08-11T05:55:18.020Z,952.73
2017-08-11T05:56:18.016Z,952.71
2017-08-11T05:57:18.011Z,952.67
2017-08-11T05:58:18.005Z,952.66
2017-08-11T05:59:17.999Z,952.68
2017-08-11T06:00:17.994Z,952.69
2017-08-11T06:01:17.990Z,952.67
2017-08-11T06:02:17.984Z,952.61
2017-08-11T06:03:17.989Z,952.56
2017-08-11T06:04:17.995Z,952.56
2017-08-11T06:05:17.970Z,952.51
2017-08-11T06:06:17.966Z,952.42
2017-08-11T06:07:17.960Z,952.4
2017-08-11T06:08:17.957Z,952.34
2017-08-11T06:09:17.950Z,952.32
2017-08-11T06:10:17.945Z,952.31
2017-08-11T06:11:17.939Z,952.33
2017-08-11T06:12:17.935Z,952.36
2017-08-11T06:13:17.929Z,952.41
2017-08-11T06:14:17.945Z,952.36
2017-08-11T06:15:17.921Z,952.33
2017-08-11T06:16:17.916Z,952.28
2017-08-11T06:17:17.923Z,952.22
2017-08-11T06:18:17.905Z,952.18
2017-08-11T06:19:17.902Z,952.16
2017-08-11T06:20:17.896Z,952.11
2017-08-11T06:21:17.890Z,952.06
2017-08-11T06:22:17.892Z,952.03
2017-08-11T06:23:17.882Z,952.04
2017-08-11T06:24:17.876Z,952.01
2017-08-11T06:25:17.872Z,952
2017-08-11T06:26:17.868Z,952.04
2017-08-11T06:27:17.869Z,952.08
2017-08-11T06:28:17.856Z,952.07
2017-08-11T06:29:17.852Z,952.07
2017-08-11T06:30:17.849Z,952.06
2017-08-11T06:31:17.842Z,952.09
2017-08-11T06:32:17.839Z,952.1
2017-08-11T06:33:17.833Z,952.1
2017-08-11T06:34:17.828Z,952.08
2017-08-11T06:35:17.824Z,952.11
2017-08-11T06:36:17.818Z,952.1
2017-08-11T06:37:17.815Z,952.09
2017-08-11T06:38:17.827Z,952.1
2017-08-11T06:39:17.806Z,952.2
2017-08-11T06:40:17.800Z,952.21
2017-08-11T06:41:17.795Z,952.28
2017-08-11T06:42:17.789Z,952.3
2017-08-11T06:43:17.784Z,952.34
2017-08-11T06:44:17.792Z,952.37
2017-08-11T06:45:17.776Z,952.49
2017-08-11T06:46:17.977Z,952.64
2017-08-11T06:47:17.766Z,952.69
2017-08-11T06:48:17.775Z,952.77
2017-08-11T06:49:17.758Z,952.8
2017-08-11T06:50:17.753Z,952.8
2017-08-11T06:51:17.756Z,952.76
2017-08-11T06:52:17.741Z,952.72
2017-08-11T06:53:17.735Z,952.64
2017-08-11T06:54:17.732Z,952.55
2017-08-11T06:55:17.726Z,952.47
2017-08-11T06:56:17.721Z,952.48
2017-08-11T06:57:17.716Z,952.56
2017-08-11T06:58:17.712Z,952.64
2017-08-11T06:59:17.706Z,952.73
2017-08-11T07:00:17.702Z,952.77
2017-08-11T07:01:17.695Z,952.79
2017-08-11T07:02:17.692Z,952.77
2017-08-11T07:03:17.687Z,952.74
2017-08-11T07:04:17.682Z,952.66
2017-08-11T07:05:17.682Z,952.65
2017-08-11T07:06:17.672Z,952.65
2017-08-11T07:07:17.667Z,952.68
2017-08-11T07:08:17.663Z,952.69
2017-08-11T07:09:17.658Z,952.7
2017-08-11T07:10:17.653Z,952.72
2017-08-11T07:11:17.649Z,952.71
2017-08-11T07:12:17.642Z,952.67
2017-08-11T07:13:17.656Z,952.67
2017-08-11T07:14:17.653Z,952.66
2017-08-11T07:15:17.632Z,952.72
2017-08-11T07:16:17.627Z,952.7
2017-08-11T07:17:17.619Z,952.72
2017-08-11T07:18:17.614Z,952.66
2017-08-11T07:19:17.610Z,952.7
2017-08-11T07:20:17.604Z,952.72
2017-08-11T07:21:17.601Z,952.79
2017-08-11T07:22:17.597Z,952.83
2017-08-11T07:23:17.591Z,952.86
2017-08-11T07:24:17.587Z,952.78
2017-08-11T07:25:17.597Z,952.78
2017-08-11T07:26:17.582Z,952.69
2017-08-11T07:27:17.576Z,952.6
2017-08-11T07:28:17.569Z,952.56
2017-08-11T07:29:17.589Z,952.51
2017-08-11T07:30:17.560Z,952.49
2017-08-11T07:31:17.557Z,952.5
2017-08-11T07:32:17.553Z,952.51
2017-08-11T07:33:17.551Z,952.49
2017-08-11T07:34:17.550Z,952.52
2017-08-11T07:35:17.539Z,952.53
2017-08-11T07:36:17.534Z,952.52
2017-08-11T07:37:17.531Z,952.53
2017-08-11T07:38:17.526Z,952.45
2017-08-11T07:39:17.521Z,952.46
2017-08-11T07:40:18.068Z,952.41
2017-08-11T07:41:17.514Z,952.41
2017-08-11T07:42:17.509Z,952.46
2017-08-11T07:43:17.506Z,952.43
2017-08-11T07:44:17.503Z,952.47
2017-08-11T07:45:17.516Z,952.49
2017-08-11T07:46:17.496Z,952.5
2017-08-11T07:47:17.491Z,952.47
2017-08-11T07:48:17.485Z,952.47
2017-08-11T07:49:17.482Z,952.48
2017-08-11T07:50:17.479Z,952.5
2017-08-11T07:51:17.476Z,952.47
2017-08-11T07:52:17.470Z,952.51
2017-08-11T07:53:17.469Z,952.49
2017-08-11T07:54:17.464Z,952.49
2017-08-11T07:55:17.461Z,952.47
2017-08-11T07:56:17.456Z,952.41
2017-08-11T07:57:17.452Z,952.4
2017-08-11T07:58:17.449Z,952.39
2017-08-11T07:59:17.458Z,952.36
2017-08-11T08:00:17.442Z,952.33
2017-08-11T08:01:17.439Z,952.33
2017-08-11T08:02:17.435Z,952.33
2017-08-11T08:03:17.432Z,952.35
2017-08-11T08:04:17.428Z,952.44
2017-08-11T08:05:17.431Z,952.43
2017-08-11T08:06:17.422Z,952.42
2017-08-11T08:07:17.419Z,952.44
2017-08-11T08:08:17.416Z,952.44
2017-08-11T08:09:17.413Z,952.45
2017-08-11T08:10:17.408Z,952.45
2017-08-11T08:11:17.404Z,952.5
2017-08-11T08:12:17.402Z,952.61
2017-08-11T08:13:17.401Z,952.61
2017-08-11T08:14:17.397Z,952.66
2017-08-11T08:15:17.415Z,952.69
2017-08-11T08:16:17.393Z,952.68
2017-08-11T08:17:17.390Z,952.71
2017-08-11T08:18:17.385Z,952.73
2017-08-11T08:19:17.382Z,952.78
2017-08-11T08:20:17.379Z,952.8
2017-08-11T08:21:17.379Z,952.85
2017-08-11T08:22:17.372Z,952.93
2017-08-11T08:23:17.370Z,952.97
2017-08-11T08:24:17.368Z,953.01
2017-08-11T08:25:17.364Z,953.02
2017-08-11T08:26:17.362Z,953.05
2017-08-11T08:27:17.359Z,952.93
2017-08-11T08:28:17.356Z,952.86
2017-08-11T08:29:17.353Z,952.82
2017-08-11T08:30:17.349Z,952.87
2017-08-11T08:31:17.347Z,952.87
2017-08-11T08:32:17.344Z,952.89
2017-08-11T08:33:17.341Z,952.87
2017-08-11T08:34:17.359Z,952.88
2017-08-11T08:35:17.334Z,952.8
2017-08-11T08:36:17.331Z,952.79
2017-08-11T08:37:17.328Z,952.83
2017-08-11T08:38:17.342Z,952.86
2017-08-11T08:39:17.323Z,952.87
2017-08-11T08:40:17.317Z,952.99
2017-08-11T08:41:17.314Z,953.04
2017-08-11T08:42:17.315Z,953.09
2017-08-11T08:43:17.308Z,953.05
2017-08-11T08:44:17.317Z,953.05
2017-08-11T08:45:17.301Z,952.97
2017-08-11T08:46:17.299Z,952.98
2017-08-11T08:47:17.295Z,952.92
2017-08-11T08:48:17.300Z,952.88
2017-08-11T08:49:17.289Z,952.85
2017-08-11T08:50:17.283Z,952.84
2017-08-11T08:51:17.301Z,952.85
2017-08-11T08:52:17.277Z,952.85
2017-08-11T08:53:17.274Z,952.87
2017-08-11T08:54:17.270Z,952.87
2017-08-11T08:55:17.280Z,952.84
2017-08-11T08:56:17.263Z,952.83
2017-08-11T08:57:17.260Z,952.82
2017-08-11T08:58:17.258Z,952.83
2017-08-11T08:59:17.253Z,952.74
2017-08-11T09:00:17.251Z,952.71
2017-08-11T09:01:17.246Z,952.68
2017-08-11T09:02:17.245Z,952.66
2017-08-11T09:03:17.240Z,952.66
2017-08-11T09:04:17.236Z,952.73
2017-08-11T09:05:17.233Z,952.81
2017-08-11T09:06:17.231Z,952.81
2017-08-11T09:07:17.226Z,952.78
2017-08-11T09:08:17.222Z,952.73
2017-08-11T09:09:17.219Z,952.7
2017-08-11T09:10:17.213Z,952.64
2017-08-11T09:11:17.212Z,952.62
2017-08-11T09:12:17.208Z,952.57
2017-08-11T09:13:17.204Z,952.53
2017-08-11T09:14:17.201Z,952.54
2017-08-11T09:15:17.197Z,952.44
2017-08-11T09:16:17.193Z,952.43
2017-08-11T09:17:17.189Z,952.39
2017-08-11T09:18:17.186Z,952.31
2017-08-11T09:19:17.386Z,952.25
2017-08-11T09:20:17.179Z,952.16
2017-08-11T09:21:17.176Z,952.11
2017-08-11T09:22:17.173Z,952.07
2017-08-11T09:23:17.170Z,952.05
2017-08-11T09:24:17.178Z,951.95
2017-08-11T09:25:17.162Z,951.92
2017-08-11T09:26:17.160Z,951.97
2017-08-11T09:27:17.158Z,951.95
2017-08-11T09:28:17.157Z,952.01
2017-08-11T09:29:17.151Z,951.99
2017-08-11T09:30:17.149Z,951.97
2017-08-11T09:31:17.144Z,951.88
2017-08-11T09:32:17.142Z,951.84
2017-08-11T09:33:17.139Z,951.8
2017-08-11T09:34:17.136Z,951.76
2017-08-11T09:35:17.134Z,951.81
2017-08-11T09:36:17.132Z,951.85
2017-08-11T09:37:17.128Z,951.89
2017-08-11T09:38:17.125Z,951.87
2017-08-11T09:39:17.123Z,951.72
2017-08-11T09:40:17.120Z,951.56
2017-08-11T09:41:17.119Z,951.43
2017-08-11T09:42:17.116Z,951.3
2017-08-11T09:43:17.113Z,951.28
2017-08-11T09:44:17.112Z,951.29
2017-08-11T09:45:17.116Z,951.3
2017-08-11T09:46:17.108Z,951.42
2017-08-11T09:47:17.108Z,951.59
2017-08-11T09:48:17.105Z,951.77
2017-08-11T09:49:17.102Z,952.01
2017-08-11T09:50:17.100Z,952.12
2017-08-11T09:51:17.097Z,952.16
2017-08-11T09:52:17.114Z,952.15
2017-08-11T09:53:17.094Z,952.06
2017-08-11T09:54:17.090Z,951.99
2017-08-11T09:55:17.088Z,951.97
2017-08-11T09:56:17.090Z,951.99
2017-08-11T09:57:17.085Z,951.96
2017-08-11T09:58:17.082Z,951.94
2017-08-11T09:59:17.098Z,951.95
2017-08-11T10:00:17.077Z,951.92
2017-08-11T10:01:17.073Z,951.93
2017-08-11T10:02:17.083Z,951.97
2017-08-11T10:03:17.081Z,952.05
2017-08-11T10:04:17.064Z,952.07
2017-08-11T10:05:17.063Z,952.06
2017-08-11T10:06:17.059Z,952.08
2017-08-11T10:07:17.056Z,952.13
2017-08-11T10:08:17.053Z,952.09
2017-08-11T10:09:17.051Z,952.11
2017-08-11T10:10:17.048Z,952.06
2017-08-11T10:11:17.044Z,952.06
2017-08-11T10:12:17.041Z,952.08
2017-08-11T10:13:17.039Z,952.1
2017-08-11T10:14:17.034Z,952.14
2017-08-11T10:15:17.030Z,952.22
2017-08-11T10:16:17.033Z,952.27
2017-08-11T10:17:17.025Z,952.27
2017-08-11T10:18:17.028Z,952.3
2017-08-11T10:19:17.018Z,952.27
2017-08-11T10:20:17.021Z,952.28
2017-08-11T10:21:17.028Z,952.25
2017-08-11T10:22:17.008Z,952.2
2017-08-11T10:23:17.006Z,952.19
2017-08-11T10:24:17.001Z,952.1
2017-08-11T10:25:16.997Z,952.12
2017-08-11T10:26:16.994Z,952.12
2017-08-11T10:27:16.992Z,952.13
2017-08-11T10:28:16.988Z,952.15
2017-08-11T10:29:16.984Z,952.18
2017-08-11T10:30:16.984Z,952.16
2017-08-11T10:31:16.976Z,952.18
2017-08-11T10:32:16.974Z,952.15
2017-08-11T10:33:16.969Z,952.12
2017-08-11T10:34:16.966Z,952.09
2017-08-11T10:35:16.964Z,952.07
2017-08-11T10:36:16.958Z,952.08
2017-08-11T10:37:16.954Z,952.04
2017-08-11T10:38:16.952Z,951.98
2017-08-11T10:39:16.947Z,951.96
2017-08-11T10:40:16.944Z,951.92
2017-08-11T10:41:16.940Z,951.92
2017-08-11T10:42:16.936Z,951.9
2017-08-11T10:43:16.933Z,951.88
2017-08-11T10:44:16.931Z,951.83
2017-08-11T10:45:16.924Z,951.82
2017-08-11T10:46:16.921Z,951.82
2017-08-11T10:47:16.918Z,951.8
2017-08-11T10:48:16.914Z,951.84
2017-08-11T10:49:16.910Z,951.81
2017-08-11T10:50:16.907Z,951.84
2017-08-11T10:51:16.904Z,951.91
2017-08-11T10:52:16.901Z,951.89
2017-08-11T10:53:16.898Z,951.9
2017-08-11T10:54:16.895Z,951.96
2017-08-11T10:55:16.891Z,951.96
2017-08-11T10:56:16.888Z,951.99
2017-08-11T10:57:16.888Z,952.06
2017-08-11T10:58:16.920Z,952.11
2017-08-11T10:59:16.880Z,952.16
2017-08-11T11:00:16.879Z,952.18
2017-08-11T11:01:16.875Z,952.17
2017-08-11T11:02:16.873Z,952.16
2017-08-11T11:03:16.871Z,952.1
2017-08-11T11:04:16.868Z,952.09
2017-08-11T11:05:16.884Z,952.08
2017-08-11T11:06:16.862Z,952.14
2017-08-11T11:07:16.862Z,952.19
2017-08-11T11:08:16.858Z,952.22
2017-08-11T11:09:16.864Z,952.21
2017-08-11T11:10:16.852Z,952.15
2017-08-11T11:11:16.889Z,952.18
2017-08-11T11:12:16.844Z,952.21
2017-08-11T11:13:16.842Z,952.2
2017-08-11T11:14:16.840Z,952.23
2017-08-11T11:15:16.837Z,952.26
2017-08-11T11:16:16.852Z,952.3
2017-08-11T11:17:16.831Z,952.32
2017-08-11T11:18:16.828Z,952.38
2017-08-11T11:19:16.825Z,952.42
2017-08-11T11:20:16.823Z,952.39
2017-08-11T11:21:16.819Z,952.3
2017-08-11T11:22:16.816Z,952.33
2017-08-11T11:23:16.814Z,952.25
2017-08-11T11:24:16.810Z,952.25
2017-08-11T11:25:16.806Z,952.26
2017-08-11T11:26:16.803Z,952.25
2017-08-11T11:27:16.800Z,952.29
2017-08-11T11:28:16.797Z,952.26
2017-08-11T11:29:16.794Z,952.33
2017-08-11T11:30:16.791Z,952.43
2017-08-11T11:31:16.786Z,952.51
2017-08-11T11:32:16.783Z,952.57
2017-08-11T11:33:16.781Z,952.62
2017-08-11T11:34:16.779Z,952.68
2017-08-11T11:35:16.774Z,952.75
2017-08-11T11:36:16.770Z,952.74
2017-08-11T11:37:16.767Z,952.74
2017-08-11T11:38:16.762Z,952.72
2017-08-11T11:39:16.762Z,952.66
2017-08-11T11:40:16.758Z,952.61
2017-08-11T11:41:16.754Z,952.56
2017-08-11T11:42:16.749Z,952.59
2017-08-11T11:43:16.745Z,952.59
2017-08-11T11:44:16.742Z,952.51
2017-08-11T11:45:16.741Z,952.44
2017-08-11T11:46:16.734Z,952.34
2017-08-11T11:47:16.732Z,952.27
2017-08-11T11:48:16.729Z,952.28
2017-08-11T11:49:16.726Z,952.23
2017-08-11T11:50:16.721Z,952.2
2017-08-11T11:51:16.719Z,952.14
2017-08-11T11:52:16.714Z,952.11
2017-08-11T11:53:16.721Z,951.93
2017-08-11T11:54:16.706Z,951.78
2017-08-11T11:55:16.702Z,951.56
2017-08-11T11:56:16.700Z,951.35
2017-08-11T11:57:16.695Z,951.27
2017-08-11T11:58:16.691Z,951.27
2017-08-11T11:59:16.689Z,951.24
2017-08-11T12:00:16.705Z,951.18
2017-08-11T12:01:16.680Z,951.22
2017-08-11T12:02:16.677Z,951.31
2017-08-11T12:03:16.673Z,951.4
2017-08-11T12:04:16.669Z,951.46
2017-08-11T12:05:16.664Z,951.4
2017-08-11T12:06:16.660Z,951.14
2017-08-11T12:07:16.657Z,950.83
2017-08-11T12:08:16.651Z,950.42
2017-08-11T12:09:16.648Z,950.22
2017-08-11T12:10:16.645Z,950.33
2017-08-11T12:11:16.638Z,950.88
2017-08-11T12:12:16.635Z,951.38
2017-08-11T12:13:16.635Z,951.66
2017-08-11T12:14:16.628Z,951.75
2017-08-11T12:15:16.624Z,951.56
2017-08-11T12:16:16.618Z,951.36
2017-08-11T12:17:16.638Z,951.15
2017-08-11T12:18:16.612Z,951.1
2017-08-11T12:19:16.607Z,951.21
2017-08-11T12:20:16.603Z,951.4
2017-08-11T12:21:16.599Z,951.52
2017-08-11T12:22:16.594Z,951.45
2017-08-11T12:23:16.599Z,951.35
2017-08-11T12:24:16.587Z,951.23
2017-08-11T12:25:16.584Z,951.11
2017-08-11T12:26:16.577Z,951.09
2017-08-11T12:27:16.573Z,951.2
2017-08-11T12:28:16.570Z,951.33
2017-08-11T12:29:16.566Z,951.44
2017-08-11T12:30:16.561Z,951.53
2017-08-11T12:31:16.556Z,951.56